Wetterdaten: Woche 16.05.16 - 22.05.16 (KW20)
Datum Zeit Temp. A. Feuchte A. Luftdruck Regen Wind Richtung Taupunkt Windchill Windben
16.05.2016 00:00 8,9 C 60 % 1017,6 hPa 0,0 l/m 9,1 km/h N 1,4 C 7,0 C 24,5 km/h
16.05.2016 01:00 8,8 C 60 % 1017,6 hPa 0,0 l/m 11,2 km/h N 1,4 C 5,6 C 25,7 km/h
16.05.2016 02:00 8,6 C 60 % 1017,6 hPa 0,0 l/m 12,1 km/h N 1,3 C 4,9 C 25,3 km/h
16.05.2016 03:00 8,3 C 60 % 1017,3 hPa 0,0 l/m 13,9 km/h N 1,1 C 3,6 C 26,1 km/h
16.05.2016 04:00 8,2 C 62 % 1017,3 hPa 0,0 l/m 13,7 km/h N 1,4 C 3,6 C 30,6 km/h
16.05.2016 05:00 8,2 C 63 % 1017,6 hPa 0,0 l/m 12,8 km/h N 1,6 C 4,0 C 25,7 km/h
16.05.2016 06:00 8,7 C 65 % 1018,0 hPa 0,0 l/m 12,5 km/h N 2,4 C 4,8 C 28,6 km/h
16.05.2016 07:00 9,2 C 64 % 1018,3 hPa 0,0 l/m 11,4 km/h N 2,7 C 5,9 C 25,7 km/h
16.05.2016 08:00 9,4 C 64 % 1018,5 hPa 0,0 l/m 10,9 km/h N 2,9 C 6,5 C 25,4 km/h
16.05.2016 09:00 10,0 C 63 % 1018,6 hPa 0,0 l/m 10,9 km/h N 3,2 C 7,1 C 25,3 km/h
16.05.2016 10:00 10,9 C 60 % 1018,5 hPa 0,0 l/m 10,7 km/h N 3,5 C 8,2 C 27,8 km/h
16.05.2016 11:00 11,9 C 57 % 1018,2 hPa 0,0 l/m 9,3 km/h N 3,6 C 10,1 C 25,7 km/h
16.05.2016 12:00 11,6 C 59 % 1018,0 hPa 0,0 l/m 11,0 km/h N 3,8 C 8,9 C 27,8 km/h
16.05.2016 13:00 13,0 C 56 % 1017,5 hPa 0,0 l/m 7,8 km/h N 4,3 C 12,0 C 22,1 km/h
16.05.2016 14:00 13,8 C 51 % 1016,9 hPa 0,0 l/m 10,0 km/h N 3,9 C 11,8 C 24,1 km/h
16.05.2016 15:00 13,0 C 55 % 1016,7 hPa 0,0 l/m 7,5 km/h N 4,1 C 12,3 C 24,9 km/h
16.05.2016 16:00 13,3 C 56 % 1016,5 hPa 0,0 l/m 10,4 km/h N 4,6 C 11,1 C 31,8 km/h
16.05.2016 17:00 12,3 C 58 % 1016,4 hPa 0,0 l/m 8,3 km/h N 4,2 C 11,1 C 26,5 km/h
16.05.2016 18:00 12,9 C 55 % 1016,2 hPa 0,0 l/m 10,7 km/h N 4,1 C 10,5 C 29,4 km/h
16.05.2016 19:00 10,9 C 62 % 1016,9 hPa 0,0 l/m 8,5 km/h N 3,9 C 9,3 C 22,1 km/h
16.05.2016 20:00 9,1 C 69 % 1017,2 hPa 0,0 l/m 0,2 km/h N 3,8 C 9,1 C 4,0 km/h
16.05.2016 21:00 9,1 C 70 % 1017,4 hPa 0,0 l/m 0,9 km/h N 3,9 C 9,1 C 7,3 km/h
16.05.2016 22:00 9,2 C 70 % 1017,3 hPa 0,0 l/m 7,3 km/h N 4,0 C 8,1 C 20,5 km/h
16.05.2016 23:00 9,2 C 71 % 1017,4 hPa 0,0 l/m 9,4 km/h N 4,1 C 7,0 C 24,5 km/h
17.05.2016 00:00 9,0 C 71 % 1017,4 hPa 0,0 l/m 9,3 km/h N 4,1 C 7,0 C 25,3 km/h
17.05.2016 01:00 8,7 C 72 % 1017,5 hPa 0,0 l/m 9,6 km/h N 3,9 C 6,4 C 24,1 km/h
17.05.2016 02:00 8,3 C 73 % 1017,5 hPa 0,0 l/m 10,1 km/h N 3,8 C 5,7 C 28,2 km/h
17.05.2016 03:00 8,1 C 75 % 1017,6 hPa 0,0 l/m 8,1 km/h N 3,9 C 6,8 C 26,9 km/h
17.05.2016 04:00 8,2 C 72 % 1017,5 hPa 0,0 l/m 6,3 km/h N 3,4 C 8,0 C 18,1 km/h
17.05.2016 05:00 7,9 C 75 % 1017,5 hPa 0,0 l/m 4,6 km/h N 3,7 C 7,9 C 16,1 km/h
17.05.2016 06:00 8,2 C 75 % 1017,6 hPa 0,0 l/m 3,4 km/h N 4,0 C 8,2 C 16,1 km/h
17.05.2016 07:00 8,8 C 73 % 1017,8 hPa 0,0 l/m 4,4 km/h N 4,3 C 8,8 C 16,1 km/h
17.05.2016 08:00 9,8 C 69 % 1018,2 hPa 0,0 l/m 6,3 km/h N 4,3 C 9,6 C 20,5 km/h
17.05.2016 09:00 10,6 C 62 % 1018,3 hPa 0,0 l/m 8,7 km/h N 3,6 C 9,0 C 26,1 km/h
17.05.2016 10:00 11,7 C 61 % 1018,3 hPa 0,0 l/m 8,6 km/h N 4,3 C 10,2 C 22,5 km/h
17.05.2016 11:00 12,1 C 53 % 1018,0 hPa 0,0 l/m 10,8 km/h N 2,8 C 9,6 C 29,0 km/h
17.05.2016 12:00 13,3 C 44 % 1017,5 hPa 0,0 l/m 11,6 km/h N 1,2 C 10,4 C 27,0 km/h
17.05.2016 13:00 13,1 C 46 % 1017,3 hPa 0,0 l/m 9,3 km/h N 1,6 C 11,4 C 22,5 km/h
17.05.2016 14:00 13,6 C 46 % 1017,0 hPa 0,0 l/m 8,8 km/h N 2,2 C 12,2 C 24,1 km/h
17.05.2016 15:00 13,7 C 47 % 1016,6 hPa 0,0 l/m 8,6 km/h N 2,5 C 12,4 C 21,3 km/h
17.05.2016 16:00 14,0 C 49 % 1016,2 hPa 0,0 l/m 7,6 km/h N 3,6 C 13,3 C 20,9 km/h
17.05.2016 17:00 14,1 C 49 % 1016,1 hPa 0,0 l/m 5,9 km/h N 3,6 C 13,7 C 18,9 km/h
17.05.2016 18:00 13,8 C 52 % 1016,1 hPa 0,0 l/m 5,8 km/h N 4,1 C 13,6 C 18,1 km/h
17.05.2016 19:00 13,5 C 52 % 1016,1 hPa 0,0 l/m 4,7 km/h N 3,9 C 13,5 C 15,7 km/h
17.05.2016 20:00 12,4 C 57 % 1016,5 hPa 0,0 l/m 3,3 km/h N 4,2 C 12,4 C 10,9 km/h
17.05.2016 21:00 11,9 C 60 % 1016,9 hPa 0,0 l/m 1,5 km/h N 4,3 C 11,9 C 7,7 km/h
17.05.2016 22:00 11,8 C 62 % 1017,1 hPa 0,0 l/m 1,3 km/h N 4,7 C 11,8 C 7,2 km/h
17.05.2016 23:00 11,7 C 65 % 1017,0 hPa 0,0 l/m 0,7 km/h N 5,2 C 11,7 C 6,8 km/h
18.05.2016 00:00 11,7 C 63 % 1016,8 hPa 0,0 l/m 1,8 km/h N 4,9 C 11,7 C 10,0 km/h
18.05.2016 01:00 11,6 C 64 % 1016,6 hPa 0,0 l/m 2,4 km/h N 5,0 C 11,6 C 10,1 km/h
18.05.2016 02:00 11,5 C 65 % 1016,3 hPa 0,0 l/m 1,5 km/h N 5,2 C 11,5 C 9,3 km/h
18.05.2016 03:00 11,2 C 67 % 1016,0 hPa 0,0 l/m 0,6 km/h N 5,2 C 11,2 C 5,6 km/h
18.05.2016 04:00 10,4 C 69 % 1015,6 hPa 0,0 l/m 0,2 km/h N 4,9 C 10,4 C 3,2 km/h
18.05.2016 05:00 9,8 C 72 % 1015,3 hPa 0,0 l/m 0,7 km/h N 4,9 C 9,8 C 7,7 km/h
18.05.2016 06:00 10,2 C 71 % 1015,4 hPa 0,0 l/m 0,0 km/h N 5,3 C 10,2 C 1,2 km/h
18.05.2016 07:00 9,8 C 77 % 1015,6 hPa 0,0 l/m 0,0 km/h N 5,8 C 9,8 C 1,2 km/h
18.05.2016 08:00 11,7 C 71 % 1015,6 hPa 0,0 l/m 1,4 km/h N 6,6 C 11,7 C 9,3 km/h
18.05.2016 09:00 13,6 C 55 % 1015,6 hPa 0,0 l/m 3,7 km/h N 4,8 C 13,6 C 13,3 km/h
18.05.2016 10:00 15,1 C 51 % 1015,4 hPa 0,0 l/m 5,7 km/h N 5,0 C 15,1 C 16,9 km/h
18.05.2016 11:00 16,5 C 47 % 1014,9 hPa 0,0 l/m 5,3 km/h N 5,1 C 16,5 C 18,9 km/h
18.05.2016 12:00 16,5 C 48 % 1014,5 hPa 0,0 l/m 2,0 km/h N 5,3 C 16,5 C 13,7 km/h
18.05.2016 13:00 17,5 C 48 % 1014,1 hPa 0,0 l/m 0,9 km/h N 6,3 C 17,5 C 8,0 km/h
18.05.2016 14:00 18,2 C 46 % 1013,6 hPa 0,0 l/m 0,8 km/h N 6,5 C 18,2 C 6,4 km/h
18.05.2016 15:00 18,5 C 45 % 1013,1 hPa 0,0 l/m 1,6 km/h N 6,2 C 18,5 C 7,2 km/h
18.05.2016 16:00 18,5 C 46 % 1012,6 hPa 0,0 l/m 0,9 km/h N 6,6 C 18,5 C 7,6 km/h
18.05.2016 17:00 17,8 C 48 % 1012,2 hPa 0,0 l/m 0,5 km/h N 6,7 C 17,8 C 6,0 km/h
18.05.2016 18:00 17,5 C 50 % 1011,7 hPa 0,0 l/m 0,8 km/h N 6,9 C 17,5 C 7,7 km/h
18.05.2016 19:00 16,9 C 54 % 1011,4 hPa 0,0 l/m 0,1 km/h N 7,5 C 16,9 C 2,4 km/h
18.05.2016 20:00 15,9 C 58 % 1011,2 hPa 0,0 l/m 0,0 km/h N 7,6 C 15,9 C 0,4 km/h
18.05.2016 21:00 13,1 C 66 % 1011,4 hPa 0,0 l/m 0,0 km/h N 6,9 C 13,1 C 0,0 km/h
18.05.2016 22:00 11,5 C 73 % 1011,5 hPa 0,0 l/m 0,0 km/h N 6,8 C 11,5 C 0,0 km/h
18.05.2016 23:00 10,2 C 76 % 1011,3 hPa 0,0 l/m 0,0 km/h N 6,0 C 10,2 C 0,0 km/h
19.05.2016 00:00 9,0 C 79 % 1010,9 hPa 0,0 l/m 0,0 km/h N 5,6 C 9,0 C 0,0 km/h
19.05.2016 01:00 8,1 C 81 % 1010,4 hPa 0,0 l/m 0,0 km/h N 5,0 C 8,1 C 0,0 km/h
19.05.2016 02:00 7,4 C 82 % 1009,9 hPa 0,0 l/m 0,0 km/h N 4,5 C 7,4 C 0,0 km/h
19.05.2016 03:00 7,1 C 82 % 1009,3 hPa 0,0 l/m 0,0 km/h N 4,2 C 7,1 C 0,0 km/h
19.05.2016 04:00 6,6 C 83 % 1009,0 hPa 0,0 l/m 0,0 km/h N 3,9 C 6,6 C 0,0 km/h
19.05.2016 05:00 6,0 C 83 % 1009,1 hPa 0,0 l/m 0,0 km/h N 3,3 C 6,0 C 0,0 km/h
19.05.2016 06:00 6,9 C 82 % 1009,1 hPa 0,0 l/m 0,0 km/h N 4,1 C 6,9 C 0,0 km/h
19.05.2016 07:00 8,8 C 82 % 1009,3 hPa 0,0 l/m 0,0 km/h N 5,9 C 8,8 C 2,0 km/h
19.05.2016 08:00 12,0 C 80 % 1009,3 hPa 0,0 l/m 1,3 km/h N 8,7 C 12,0 C 6,8 km/h
19.05.2016 09:00 15,6 C 70 % 1009,2 hPa 0,0 l/m 0,7 km/h N 10,1 C 15,6 C 6,8 km/h
19.05.2016 10:00 17,2 C 62 % 1009,2 hPa 0,0 l/m 1,5 km/h N 9,9 C 17,2 C 9,3 km/h
19.05.2016 11:00 18,5 C 57 % 1009,4 hPa 0,0 l/m 1,6 km/h N 9,7 C 18,5 C 7,2 km/h
19.05.2016 12:00 20,1 C 55 % 1009,4 hPa 0,0 l/m 1,9 km/h N 10,6 C 20,1 C 10,1 km/h
19.05.2016 13:00 21,7 C 53 % 1009,1 hPa 0,0 l/m 1,6 km/h N 11,6 C 21,7 C 7,2 km/h
19.05.2016 14:00 21,5 C 53 % 1008,9 hPa 0,0 l/m 1,3 km/h N 11,4 C 21,5 C 8,4 km/h
19.05.2016 15:00 21,0 C 53 % 1008,9 hPa 0,0 l/m 1,1 km/h N 10,9 C 21,0 C 8,0 km/h
19.05.2016 16:00 20,9 C 52 % 1009,2 hPa 0,0 l/m 0,6 km/h N 10,7 C 20,9 C 6,4 km/h
19.05.2016 17:00 19,9 C 55 % 1009,5 hPa 0,0 l/m 1,2 km/h N 10,5 C 19,9 C 6,9 km/h
19.05.2016 18:00 17,2 C 61 % 1010,5 hPa 0,0 l/m 2,5 km/h N 9,6 C 17,2 C 8,4 km/h
19.05.2016 19:00 14,1 C 78 % 1011,0 hPa 2,1 l/m 1,4 km/h N 10,2 C 14,1 C 9,2 km/h
19.05.2016 20:00 13,0 C 82 % 1011,5 hPa 0,0 l/m 0,6 km/h N 10,0 C 13,0 C 7,2 km/h
19.05.2016 21:00 12,9 C 82 % 1012,8 hPa 0,0 l/m 0,5 km/h N 9,9 C 12,9 C 5,2 km/h
19.05.2016 22:00 12,6 C 82 % 1013,5 hPa 0,0 l/m 0,1 km/h N 9,6 C 12,6 C 2,4 km/h
19.05.2016 23:00 12,3 C 82 % 1013,5 hPa 0,0 l/m 3,5 km/h N 9,3 C 12,3 C 14,9 km/h
20.05.2016 00:00 12,2 C 80 % 1013,9 hPa 0,0 l/m 1,5 km/h N 8,9 C 12,2 C 10,9 km/h
20.05.2016 01:00 11,9 C 81 % 1014,5 hPa 0,0 l/m 3,0 km/h N 8,8 C 11,9 C 10,9 km/h
20.05.2016 02:00 11,9 C 81 % 1014,9 hPa 0,0 l/m 0,9 km/h N 8,7 C 11,9 C 8,5 km/h
20.05.2016 03:00 11,9 C 81 % 1015,0 hPa 0,0 l/m 1,2 km/h N 8,7 C 11,9 C 10,1 km/h
20.05.2016 04:00 11,9 C 81 % 1015,4 hPa 0,0 l/m 0,1 km/h N 8,7 C 11,9 C 3,2 km/h
20.05.2016 05:00 11,9 C 81 % 1016,1 hPa 0,0 l/m 0,7 km/h N 8,7 C 11,9 C 8,4 km/h
20.05.2016 06:00 12,2 C 81 % 1016,6 hPa 0,0 l/m 1,0 km/h N 9,0 C 12,2 C 10,1 km/h
20.05.2016 07:00 12,4 C 81 % 1016,9 hPa 0,0 l/m 0,5 km/h N 9,1 C 12,4 C 5,2 km/h
20.05.2016 08:00 13,9 C 80 % 1017,1 hPa 0,3 l/m 1,8 km/h N 10,4 C 13,9 C 12,5 km/h
20.05.2016 09:00 15,9 C 73 % 1017,3 hPa 0,0 l/m 7,0 km/h N 11,1 C 15,4 C 23,4 km/h
20.05.2016 10:00 16,6 C 69 % 1017,6 hPa 0,0 l/m 7,2 km/h N 11,0 C 16,0 C 20,5 km/h
20.05.2016 11:00 17,9 C 67 % 1017,6 hPa 0,0 l/m 6,3 km/h N 11,7 C 17,6 C 18,1 km/h
20.05.2016 12:00 18,5 C 64 % 1017,3 hPa 0,0 l/m 8,3 km/h N 11,5 C 17,6 C 21,3 km/h
20.05.2016 13:00 19,5 C 62 % 1017,0 hPa 0,0 l/m 9,3 km/h N 11,9 C 18,3 C 23,3 km/h
20.05.2016 14:00 18,4 C 64 % 1017,3 hPa 0,0 l/m 11,5 km/h N 11,5 C 16,3 C 26,9 km/h
20.05.2016 15:00 18,0 C 65 % 1017,1 hPa 0,0 l/m 10,7 km/h N 11,2 C 16,2 C 26,9 km/h
20.05.2016 16:00 17,7 C 65 % 1017,3 hPa 0,0 l/m 13,5 km/h N 10,9 C 14,9 C 34,2 km/h
20.05.2016 17:00 17,0 C 66 % 1017,5 hPa 0,0 l/m 13,0 km/h N 10,6 C 14,3 C 30,6 km/h
20.05.2016 18:00 17,0 C 67 % 1017,6 hPa 0,0 l/m 10,2 km/h N 10,8 C 15,3 C 27,4 km/h
20.05.2016 19:00 16,9 C 66 % 1017,7 hPa 0,0 l/m 12,8 km/h N 10,5 C 14,2 C 30,2 km/h
20.05.2016 20:00 15,9 C 69 % 1018,1 hPa 0,0 l/m 11,2 km/h N 10,2 C 13,7 C 28,2 km/h
20.05.2016 21:00 15,6 C 69 % 1018,7 hPa 0,0 l/m 8,6 km/h N 9,9 C 14,5 C 26,5 km/h
20.05.2016 22:00 15,7 C 68 % 1018,6 hPa 0,0 l/m 6,8 km/h N 9,7 C 15,4 C 20,9 km/h
20.05.2016 23:00 15,9 C 66 % 1018,6 hPa 0,0 l/m 7,2 km/h N 9,6 C 15,5 C 20,9 km/h
21.05.2016 00:00 15,9 C 65 % 1018,5 hPa 0,0 l/m 9,0 km/h N 9,4 C 14,5 C 20,9 km/h
21.05.2016 01:00 15,6 C 65 % 1018,6 hPa 0,0 l/m 6,3 km/h N 9,0 C 15,3 C 18,9 km/h
21.05.2016 02:00 15,3 C 65 % 1018,6 hPa 0,0 l/m 3,3 km/h N 8,7 C 15,3 C 13,3 km/h
21.05.2016 03:00 14,8 C 66 % 1018,7 hPa 0,0 l/m 1,2 km/h N 8,4 C 14,8 C 7,6 km/h
21.05.2016 04:00 13,5 C 71 % 1019,0 hPa 0,0 l/m 0,7 km/h N 8,3 C 13,5 C 6,8 km/h
21.05.2016 05:00 14,6 C 67 % 1019,3 hPa 0,0 l/m 3,2 km/h N 8,6 C 14,6 C 12,1 km/h
21.05.2016 06:00 15,3 C 65 % 1019,3 hPa 0,0 l/m 4,2 km/h N 8,7 C 15,3 C 13,3 km/h
21.05.2016 07:00 16,5 C 62 % 1019,3 hPa 0,0 l/m 5,0 km/h N 9,2 C 16,5 C 16,5 km/h
21.05.2016 08:00 18,1 C 57 % 1019,5 hPa 0,0 l/m 5,3 km/h N 9,5 C 18,0 C 15,7 km/h
21.05.2016 09:00 19,5 C 56 % 1019,6 hPa 0,0 l/m 5,7 km/h N 10,4 C 19,4 C 14,9 km/h
21.05.2016 10:00 20,2 C 53 % 1019,5 hPa 0,0 l/m 5,3 km/h N 10,2 C 20,1 C 15,3 km/h
21.05.2016 11:00 21,4 C 46 % 1019,1 hPa 0,0 l/m 3,8 km/h N 9,4 C 21,4 C 14,9 km/h
21.05.2016 12:00 21,9 C 46 % 1018,8 hPa 0,0 l/m 4,0 km/h N 9,6 C 21,9 C 16,1 km/h
21.05.2016 13:00 22,9 C 45 % 1018,2 hPa 0,0 l/m 2,0 km/h N 10,2 C 22,9 C 9,6 km/h
21.05.2016 14:00 24,2 C 45 % 1017,8 hPa 0,0 l/m 1,4 km/h N 11,3 C 24,2 C 10,5 km/h
21.05.2016 15:00 23,9 C 45 % 1017,7 hPa 0,0 l/m 1,2 km/h N 11,1 C 23,9 C 8,8 km/h
21.05.2016 16:00 23,0 C 46 % 1017,4 hPa 0,0 l/m 1,4 km/h N 10,6 C 23,0 C 8,4 km/h
21.05.2016 17:00 22,7 C 47 % 1017,3 hPa 0,0 l/m 1,5 km/h N 10,6 C 22,7 C 8,8 km/h
21.05.2016 18:00 23,6 C 46 % 1017,1 hPa 0,0 l/m 0,6 km/h N 11,2 C 23,6 C 4,8 km/h
21.05.2016 19:00 23,1 C 47 % 1017,0 hPa 0,0 l/m 0,1 km/h N 11,2 C 23,1 C 2,0 km/h
21.05.2016 20:00 20,9 C 54 % 1017,1 hPa 0,0 l/m 0,0 km/h N 11,1 C 20,9 C 0,4 km/h
21.05.2016 21:00 17,5 C 63 % 1017,6 hPa 0,0 l/m 0,0 km/h N 10,4 C 17,5 C 0,0 km/h
21.05.2016 22:00 15,1 C 71 % 1017,5 hPa 0,0 l/m 0,0 km/h N 9,8 C 15,1 C 0,0 km/h
21.05.2016 23:00 13,6 C 76 % 1017,5 hPa 0,0 l/m 0,0 km/h N 9,4 C 13,6 C 0,0 km/h
22.05.2016 00:00 12,4 C 79 % 1017,3 hPa 0,0 l/m 0,0 km/h N 8,8 C 12,4 C 0,0 km/h
22.05.2016 01:00 11,5 C 80 % 1016,8 hPa 0,0 l/m 0,0 km/h N 8,2 C 11,5 C 0,0 km/h
22.05.2016 02:00 10,8 C 82 % 1016,2 hPa 0,0 l/m 0,0 km/h N 7,7 C 10,8 C 0,0 km/h
22.05.2016 03:00 10,2 C 82 % 1015,8 hPa 0,0 l/m 0,0 km/h N 7,3 C 10,2 C 0,0 km/h
22.05.2016 04:00 9,8 C 82 % 1015,6 hPa 0,0 l/m 0,0 km/h N 6,9 C 9,8 C 0,0 km/h
22.05.2016 05:00 9,3 C 82 % 1015,4 hPa 0,0 l/m 0,0 km/h N 6,4 C 9,3 C 0,0 km/h
22.05.2016 06:00 9,3 C 82 % 1015,4 hPa 0,0 l/m 0,0 km/h N 6,4 C 9,3 C 0,0 km/h
22.05.2016 07:00 11,6 C 81 % 1015,3 hPa 0,0 l/m 0,0 km/h N 8,4 C 11,6 C 1,2 km/h
22.05.2016 08:00 15,2 C 81 % 1015,3 hPa 0,0 l/m 0,2 km/h N 11,9 C 15,2 C 2,8 km/h
22.05.2016 09:00 20,9 C 68 % 1014,6 hPa 0,0 l/m 0,4 km/h N 14,8 C 20,9 C 4,4 km/h
22.05.2016 10:00 24,7 C 49 % 1013,8 hPa 0,0 l/m 4,2 km/h N 13,3 C 24,7 C 14,9 km/h
22.05.2016 11:00 25,9 C 43 % 1013,3 hPa 0,0 l/m 6,2 km/h N 12,4 C 25,9 C 17,7 km/h
22.05.2016 12:00 26,6 C 42 % 1013,2 hPa 0,0 l/m 6,3 km/h N 12,5 C 26,6 C 18,1 km/h
22.05.2016 13:00 27,4 C 41 % 1012,7 hPa 0,0 l/m 5,9 km/h N 13,1 C 27,4 C 19,3 km/h
22.05.2016 14:00 28,0 C 41 % 1012,3 hPa 0,0 l/m 4,9 km/h N 13,4 C 28,0 C 15,3 km/h
22.05.2016 15:00 27,0 C 43 % 1011,8 hPa 0,0 l/m 4,8 km/h N 13,2 C 27,0 C 18,1 km/h
22.05.2016 16:00 26,2 C 44 % 1011,3 hPa 0,0 l/m 6,4 km/h N 12,8 C 26,1 C 18,9 km/h
22.05.2016 17:00 25,9 C 44 % 1011,1 hPa 0,0 l/m 6,4 km/h N 12,6 C 25,9 C 20,1 km/h
22.05.2016 18:00 25,8 C 44 % 1010,9 hPa 0,0 l/m 5,4 km/h N 12,5 C 25,8 C 17,3 km/h
22.05.2016 19:00 24,8 C 45 % 1010,4 hPa 0,0 l/m 4,6 km/h N 12,1 C 24,8 C 15,3 km/h
22.05.2016 20:00 23,0 C 51 % 1010,1 hPa 0,0 l/m 3,0 km/h N 12,2 C 23,0 C 12,9 km/h
22.05.2016 21:00 20,6 C 57 % 1010,1 hPa 0,0 l/m 0,2 km/h N 11,8 C 20,6 C 4,0 km/h
22.05.2016 22:00 18,9 C 63 % 1010,0 hPa 0,0 l/m 0,2 km/h N 11,5 C 18,9 C 2,4 km/h
22.05.2016 23:00 18,0 C 66 % 1009,9 hPa 0,0 l/m 0,1 km/h N 11,5 C 18,0 C 2,8 km/h
Min-Datum _ 19.05.16 22.05.16 19.05.16 - 16.05.16 - 17.05.16 16.05.16 18.05.16
_ Min-Zeit 05:45 14:30 15:30 - 20:15 - 12:30 04:30 04:30
Minimum _ 5,8 C 40 % 1008,8 hPa - 0,0 km/h - 1,0 C 2,9 C 0,0 km/h
Max-Datum _ 22.05.16 19.05.16 21.05.16 19.05.16 20.05.16 - 22.05.16 22.05.16 16.05.16
_ Max-Zeit 14:45 04:00 09:15 19:15 17:00 - 09:30 14:45 18:00
Maximum _ 28,3 C 83 % 1019,6 hPa 2,1 l/m 16,2 km/h
N
- 15,4 C 28,2 C 40,2 km/h
N
Durchschnitt _ 14,7 C 63 % 1015,3 hPa #2,3 l/m 4,3 km/h N 7,4 C 14,1 C 13,4 km/h